createdAt,value
2023-07-16T00:00:21.046Z,0.73
2023-07-16T00:02:48.127Z,1.00
2023-07-16T00:05:14.763Z,0.70
2023-07-16T00:07:42.434Z,0.80
2023-07-16T00:10:09.363Z,0.50
2023-07-16T00:12:35.908Z,0.70
2023-07-16T00:15:02.611Z,0.80
2023-07-16T00:17:29.234Z,0.50
2023-07-16T00:19:55.871Z,1.02
2023-07-16T00:22:22.539Z,0.93
2023-07-16T00:24:49.096Z,1.00
2023-07-16T00:27:16.374Z,0.70
2023-07-16T00:29:42.965Z,0.70
2023-07-16T00:32:09.428Z,0.80
2023-07-16T00:34:35.926Z,1.00
2023-07-16T00:37:04.247Z,0.93
2023-07-16T00:39:31.102Z,0.98
2023-07-16T00:41:58.084Z,1.07
2023-07-16T00:44:24.810Z,0.82
2023-07-16T00:46:52.278Z,1.65
2023-07-16T00:49:18.870Z,0.70
2023-07-16T00:51:46.070Z,0.95
2023-07-16T00:54:12.572Z,0.80
2023-07-16T00:56:39.560Z,0.60
2023-07-16T00:59:06.156Z,1.38
2023-07-16T01:01:32.795Z,1.40
2023-07-16T01:03:59.443Z,0.73
2023-07-16T01:06:36.979Z,0.73
2023-07-16T01:09:03.879Z,0.80
2023-07-16T01:11:31.594Z,1.20
2023-07-16T01:13:58.792Z,1.13
2023-07-16T01:16:26.578Z,0.80
2023-07-16T01:18:53.295Z,1.13
2023-07-16T01:21:22.786Z,0.90
2023-07-16T01:24:10.554Z,1.00
2023-07-16T01:26:48.522Z,1.02
2023-07-16T01:29:35.351Z,1.42
2023-07-16T01:32:05.068Z,1.23
2023-07-16T01:34:34.841Z,1.00
2023-07-16T01:37:05.204Z,1.30
2023-07-16T01:39:33.899Z,1.33
2023-07-16T01:42:00.656Z,1.13
2023-07-16T01:44:27.315Z,1.13
2023-07-16T01:47:25.667Z,1.40
2023-07-16T01:49:52.245Z,1.10
2023-07-16T01:52:18.747Z,1.35
2023-07-16T01:54:45.263Z,1.08
2023-07-16T01:57:12.008Z,0.90
2023-07-16T01:59:38.530Z,0.98
2023-07-16T02:02:05.551Z,1.40
2023-07-16T02:04:32.039Z,1.27
2023-07-16T02:06:58.493Z,1.40
2023-07-16T02:09:26.382Z,1.40
2023-07-16T02:11:53.232Z,1.50
2023-07-16T02:14:19.934Z,1.48
2023-07-16T02:16:46.486Z,1.42
2023-07-16T02:19:13.014Z,1.15
2023-07-16T02:21:39.530Z,1.70
2023-07-16T02:24:06.380Z,1.52
2023-07-16T02:26:32.876Z,1.45
2023-07-16T02:29:00.637Z,1.63
2023-07-16T02:31:27.525Z,1.88
2023-07-16T02:33:54.259Z,1.67
2023-07-16T02:36:20.918Z,1.70
2023-07-16T02:38:47.514Z,2.08
2023-07-16T02:41:14.230Z,1.55
2023-07-16T02:43:40.913Z,1.50
2023-07-16T02:46:07.631Z,1.57
2023-07-16T02:48:34.109Z,1.83
2023-07-16T02:51:00.631Z,1.67
2023-07-16T02:53:27.085Z,1.30
2023-07-16T02:55:53.612Z,1.52
2023-07-16T02:58:20.106Z,1.50
2023-07-16T03:00:46.725Z,1.95
2023-07-16T03:03:13.410Z,1.30
2023-07-16T03:05:40.059Z,1.38
2023-07-16T03:08:06.743Z,1.40
2023-07-16T03:10:33.410Z,2.37
2023-07-16T03:12:59.984Z,1.42
2023-07-16T03:15:26.689Z,1.30
2023-07-16T03:17:53.229Z,1.27
2023-07-16T03:20:20.075Z,1.55
2023-07-16T03:22:46.777Z,1.60
2023-07-16T03:25:13.361Z,1.55
2023-07-16T03:27:41.056Z,1.52
2023-07-16T03:30:08.239Z,1.27
2023-07-16T03:32:50.246Z,1.60
2023-07-16T03:35:18.380Z,1.67
2023-07-16T03:37:45.115Z,1.48
2023-07-16T03:40:16.461Z,1.38
2023-07-16T03:42:43.832Z,1.63
2023-07-16T03:45:12.075Z,1.70
2023-07-16T03:47:39.062Z,1.23
2023-07-16T03:50:06.273Z,1.40
2023-07-16T03:52:32.893Z,1.70
2023-07-16T03:54:59.657Z,1.20
2023-07-16T03:57:26.143Z,1.90
2023-07-16T03:59:52.759Z,1.70
2023-07-16T04:02:19.386Z,1.02
2023-07-16T04:04:46.122Z,1.58
2023-07-16T04:07:12.586Z,1.30
2023-07-16T04:09:39.926Z,1.60
2023-07-16T04:12:07.853Z,1.58
2023-07-16T04:14:34.470Z,1.75
2023-07-16T04:17:01.089Z,1.27
2023-07-16T04:19:27.635Z,1.80
2023-07-16T04:21:54.256Z,1.33
2023-07-16T04:24:21.067Z,1.40
2023-07-16T04:26:47.768Z,1.55
2023-07-16T04:29:14.386Z,1.48
2023-07-16T04:31:40.926Z,1.50
2023-07-16T04:34:07.715Z,1.58
2023-07-16T04:36:34.260Z,1.83
2023-07-16T04:39:00.759Z,2.00
2023-07-16T04:41:27.364Z,1.95
2023-07-16T04:43:53.990Z,2.35
2023-07-16T04:46:20.660Z,1.80
2023-07-16T04:48:47.158Z,2.00
2023-07-16T04:51:14.095Z,1.92
2023-07-16T04:53:40.595Z,1.80
2023-07-16T04:56:16.117Z,1.63
2023-07-16T04:58:43.430Z,1.75
2023-07-16T05:01:10.961Z,2.03
2023-07-16T05:03:38.187Z,1.80
2023-07-16T05:06:05.283Z,1.83
2023-07-16T05:08:31.903Z,1.85
2023-07-16T05:10:58.457Z,1.88
2023-07-16T05:13:25.047Z,1.88
2023-07-16T05:15:51.538Z,1.98
2023-07-16T05:18:18.132Z,2.65
2023-07-16T05:20:49.044Z,2.40
2023-07-16T05:23:15.955Z,2.25
2023-07-16T05:25:52.072Z,2.40
2023-07-16T05:28:20.039Z,2.42
2023-07-16T05:30:46.834Z,2.17
2023-07-16T05:33:13.542Z,2.05
2023-07-16T05:35:40.870Z,2.25
2023-07-16T05:38:07.505Z,2.55
2023-07-16T05:40:34.288Z,2.20
2023-07-16T05:43:00.941Z,2.50
2023-07-16T05:45:27.443Z,2.42
2023-07-16T05:47:54.213Z,2.35
2023-07-16T05:50:20.820Z,2.55
2023-07-16T05:52:49.433Z,2.60
2023-07-16T05:55:16.311Z,1.92
2023-07-16T05:57:43.113Z,2.60
2023-07-16T06:00:10.334Z,2.45
2023-07-16T06:02:37.091Z,2.00
2023-07-16T06:05:03.850Z,2.30
2023-07-16T06:07:30.368Z,2.42
2023-07-16T06:09:56.759Z,2.25
2023-07-16T06:12:23.577Z,2.58
2023-07-16T06:14:50.104Z,2.13
2023-07-16T06:17:16.741Z,3.10
2023-07-16T06:19:44.072Z,2.53
2023-07-16T06:22:10.596Z,2.30
2023-07-16T06:24:37.104Z,2.47
2023-07-16T06:27:04.103Z,2.35
2023-07-16T06:29:30.541Z,2.60
2023-07-16T06:31:58.554Z,2.95
2023-07-16T06:34:26.031Z,2.42
2023-07-16T06:36:52.479Z,2.53
2023-07-16T06:39:19.184Z,2.05
2023-07-16T06:41:45.747Z,2.10
2023-07-16T06:44:12.461Z,2.40
2023-07-16T06:46:38.976Z,2.58
2023-07-16T06:49:07.165Z,2.30
2023-07-16T06:51:34.498Z,2.67
2023-07-16T06:54:01.218Z,2.53
2023-07-16T06:56:27.964Z,2.53
2023-07-16T06:58:54.648Z,2.40
2023-07-16T07:01:21.211Z,2.30
2023-07-16T07:03:47.912Z,3.38
2023-07-16T07:06:14.625Z,2.53
2023-07-16T07:08:41.394Z,2.40
2023-07-16T07:11:07.863Z,2.40
2023-07-16T07:13:34.309Z,2.80
2023-07-16T07:16:00.883Z,2.90
2023-07-16T07:18:27.531Z,2.67
2023-07-16T07:20:54.222Z,3.50
2023-07-16T07:23:20.935Z,2.63
2023-07-16T07:25:52.274Z,2.42
2023-07-16T07:28:19.931Z,3.15
2023-07-16T07:30:46.969Z,2.60
2023-07-16T07:33:13.732Z,2.78
2023-07-16T07:35:40.389Z,2.83
2023-07-16T07:38:07.014Z,2.70
2023-07-16T07:40:33.804Z,2.78
2023-07-16T07:43:01.037Z,2.80
2023-07-16T07:45:27.719Z,2.60
2023-07-16T07:47:54.325Z,2.85
2023-07-16T07:50:21.101Z,2.85
2023-07-16T07:52:47.676Z,2.72
2023-07-16T07:55:14.363Z,2.47
2023-07-16T07:57:41.013Z,3.20
2023-07-16T08:00:11.934Z,2.60
2023-07-16T08:02:39.487Z,2.70
2023-07-16T08:05:06.894Z,2.83
2023-07-16T08:07:33.530Z,2.67
2023-07-16T08:10:00.066Z,2.85
2023-07-16T08:12:26.593Z,2.55
2023-07-16T08:14:53.036Z,2.88
2023-07-16T08:17:22.113Z,2.80
2023-07-16T08:19:50.467Z,2.80
2023-07-16T08:22:17.144Z,2.70
2023-07-16T08:24:44.059Z,2.58
2023-07-16T08:27:10.916Z,3.00
2023-07-16T08:29:37.932Z,2.47
2023-07-16T08:32:04.876Z,2.70
2023-07-16T08:34:31.383Z,2.88
2023-07-16T08:36:58.066Z,3.38
2023-07-16T08:39:26.327Z,3.00
2023-07-16T08:41:54.293Z,2.58
2023-07-16T08:44:21.583Z,2.73
2023-07-16T08:46:48.572Z,3.05
2023-07-16T08:49:19.412Z,2.67
2023-07-16T08:51:51.170Z,2.60
2023-07-16T08:54:18.484Z,2.47
2023-07-16T08:56:45.572Z,3.30
2023-07-16T08:59:12.130Z,2.83
2023-07-16T09:01:39.147Z,3.60
2023-07-16T09:04:05.713Z,2.83
2023-07-16T09:06:32.360Z,2.80
2023-07-16T09:08:59.401Z,3.03
2023-07-16T09:11:26.169Z,2.88
2023-07-16T09:13:52.615Z,3.55
2023-07-16T09:16:19.882Z,2.90
2023-07-16T09:18:46.394Z,2.92
2023-07-16T09:21:13.165Z,2.73
2023-07-16T09:23:39.769Z,3.00
2023-07-16T09:26:06.406Z,3.22
2023-07-16T09:28:33.776Z,2.53
2023-07-16T09:31:07.732Z,2.90
2023-07-16T09:33:35.160Z,2.83
2023-07-16T09:36:04.101Z,2.47
2023-07-16T09:38:31.303Z,2.80
2023-07-16T09:40:58.067Z,3.17
2023-07-16T09:43:24.972Z,2.60
2023-07-16T09:45:51.817Z,2.50
2023-07-16T09:48:18.500Z,2.70
2023-07-16T09:50:55.542Z,2.80
2023-07-16T09:53:23.590Z,2.67
2023-07-16T09:55:54.544Z,2.50
2023-07-16T09:58:22.001Z,2.33
2023-07-16T10:00:51.700Z,2.58
2023-07-16T10:03:18.868Z,2.85
2023-07-16T10:05:46.906Z,2.28
2023-07-16T10:08:18.525Z,2.60
2023-07-16T10:10:58.178Z,2.70
2023-07-16T10:13:25.502Z,3.00
2023-07-16T10:15:53.727Z,2.88
2023-07-16T10:18:34.923Z,2.70
2023-07-16T10:21:09.942Z,2.78
2023-07-16T10:23:44.294Z,2.43
2023-07-16T10:26:18.340Z,3.15
2023-07-16T10:28:46.609Z,2.10
2023-07-16T10:31:23.249Z,2.50
2023-07-16T10:33:59.421Z,2.70
2023-07-16T10:36:25.932Z,2.53
2023-07-16T10:38:54.621Z,2.50
2023-07-16T10:41:24.481Z,1.92
2023-07-16T10:43:53.127Z,2.67
2023-07-16T10:46:22.469Z,2.60
2023-07-16T10:48:49.247Z,2.20
2023-07-16T10:51:17.066Z,2.60
2023-07-16T10:53:44.789Z,2.45
2023-07-16T10:56:11.477Z,2.30
2023-07-16T10:58:39.143Z,2.40
2023-07-16T11:01:05.906Z,2.10
2023-07-16T11:03:32.697Z,2.60
2023-07-16T11:05:59.225Z,2.50
2023-07-16T11:08:26.433Z,2.15
2023-07-16T11:10:57.882Z,2.40
2023-07-16T11:13:32.822Z,2.10
2023-07-16T11:16:09.834Z,2.55
2023-07-16T11:18:36.934Z,2.67
2023-07-16T11:21:04.878Z,2.30
2023-07-16T11:23:35.996Z,2.63
2023-07-16T11:26:05.969Z,2.57
2023-07-16T11:28:43.194Z,2.20
2023-07-16T11:31:17.460Z,1.92
2023-07-16T11:33:47.414Z,2.22
2023-07-16T11:36:15.235Z,2.10
2023-07-16T11:38:42.506Z,2.10
2023-07-16T11:41:09.159Z,2.20
2023-07-16T11:43:37.205Z,1.75
2023-07-16T11:46:17.179Z,1.27
2023-07-16T11:48:44.589Z,1.80
2023-07-16T11:51:11.201Z,1.40
2023-07-16T11:53:39.661Z,1.83
2023-07-16T11:56:06.749Z,1.67
2023-07-16T11:58:33.386Z,1.40
2023-07-16T12:00:59.892Z,1.17
2023-07-16T12:03:26.523Z,0.90
2023-07-16T12:05:54.350Z,0.80
2023-07-16T12:08:21.455Z,1.00
2023-07-16T12:10:48.096Z,0.75
2023-07-16T12:13:14.800Z,0.98
2023-07-16T12:15:41.517Z,1.00
2023-07-16T12:18:08.386Z,0.95
2023-07-16T12:20:37.385Z,0.90
2023-07-16T12:23:04.401Z,1.10
2023-07-16T12:25:31.521Z,0.70
2023-07-16T12:27:59.235Z,0.63
2023-07-16T12:30:26.091Z,0.80
2023-07-16T12:32:52.611Z,1.08
2023-07-16T12:35:19.362Z,0.90
2023-07-16T12:37:46.091Z,1.00
2023-07-16T12:40:12.969Z,1.00
2023-07-16T12:42:39.586Z,1.10
2023-07-16T12:45:06.693Z,1.42
2023-07-16T12:47:33.332Z,1.02
2023-07-16T12:49:59.862Z,0.80
2023-07-16T12:52:26.513Z,0.90
2023-07-16T12:54:54.207Z,1.00
2023-07-16T12:57:22.365Z,0.95
2023-07-16T12:59:49.015Z,0.80
2023-07-16T13:02:16.010Z,0.70
2023-07-16T13:04:42.775Z,0.60
2023-07-16T13:07:09.665Z,1.17
2023-07-16T13:09:36.470Z,0.70
2023-07-16T13:12:04.276Z,0.70
2023-07-16T13:14:30.824Z,0.57
2023-07-16T13:16:57.294Z,0.77
2023-07-16T13:19:23.910Z,0.70
2023-07-16T13:21:50.494Z,0.43
2023-07-16T13:24:17.168Z,0.55
2023-07-16T13:26:44.946Z,0.55
2023-07-16T13:29:13.369Z,0.60
2023-07-16T13:31:39.894Z,0.40
2023-07-16T13:34:06.673Z,0.65
2023-07-16T13:36:33.371Z,0.65
2023-07-16T13:39:00.624Z,0.82
2023-07-16T13:41:28.324Z,0.53
2023-07-16T13:43:56.295Z,0.50
2023-07-16T13:46:22.856Z,0.57
2023-07-16T13:51:22.881Z,0.65
2023-07-16T13:53:49.347Z,0.47
2023-07-16T13:56:16.320Z,0.50
2023-07-16T13:58:43.029Z,0.60
2023-07-16T14:01:09.576Z,0.52
2023-07-16T14:03:36.387Z,0.65
2023-07-16T14:06:03.031Z,0.40
2023-07-16T14:08:29.579Z,0.60
2023-07-16T14:10:56.103Z,0.55
2023-07-16T14:13:22.643Z,0.50
2023-07-16T14:15:49.267Z,0.40
2023-07-16T14:18:15.895Z,0.80
2023-07-16T14:20:42.430Z,0.60
2023-07-16T14:23:09.137Z,0.45
2023-07-16T14:25:35.997Z,0.52
2023-07-16T14:28:02.434Z,0.70
2023-07-16T14:30:29.081Z,0.50
2023-07-16T14:32:55.614Z,0.73
2023-07-16T14:35:35.681Z,0.50
2023-07-16T14:38:04.144Z,0.60
2023-07-16T14:40:30.788Z,0.57
2023-07-16T14:42:57.334Z,0.70
2023-07-16T14:45:24.616Z,0.90
2023-07-16T14:47:51.223Z,0.70
2023-07-16T14:50:17.898Z,0.70
2023-07-16T14:52:44.382Z,0.50
2023-07-16T14:55:10.903Z,0.40
2023-07-16T14:57:38.415Z,0.38
2023-07-16T15:00:07.987Z,0.60
2023-07-16T15:02:34.936Z,0.60
2023-07-16T15:05:01.913Z,0.90
2023-07-16T15:07:28.359Z,1.00
2023-07-16T15:09:54.934Z,0.60
2023-07-16T15:12:21.393Z,0.52
2023-07-16T15:14:48.042Z,0.73
2023-07-16T15:17:15.133Z,0.68
2023-07-16T15:19:41.793Z,0.83
2023-07-16T15:22:09.814Z,0.75
2023-07-16T15:24:37.923Z,0.60
2023-07-16T15:27:05.243Z,0.80
2023-07-16T15:29:32.281Z,0.73
2023-07-16T15:32:01.462Z,0.50
2023-07-16T15:34:29.476Z,0.52
2023-07-16T15:36:56.021Z,0.60
2023-07-16T15:39:22.677Z,0.50
2023-07-16T15:41:49.249Z,0.60
2023-07-16T15:44:17.836Z,0.60
2023-07-16T15:46:45.063Z,0.40
2023-07-16T15:49:12.447Z,0.70
2023-07-16T15:51:41.980Z,0.50
2023-07-16T15:54:08.746Z,0.45
2023-07-16T15:56:35.305Z,0.70
2023-07-16T15:59:01.885Z,0.95
2023-07-16T16:01:28.814Z,0.50
2023-07-16T16:03:55.483Z,0.50
2023-07-16T16:06:22.168Z,0.60
2023-07-16T16:08:48.689Z,0.60
2023-07-16T16:11:15.821Z,0.52
2023-07-16T16:13:42.683Z,0.50
2023-07-16T16:16:09.185Z,0.50
2023-07-16T16:18:35.892Z,0.50
2023-07-16T16:21:02.614Z,0.80
2023-07-16T16:23:30.190Z,0.47
2023-07-16T16:25:56.902Z,0.50
2023-07-16T16:28:24.021Z,0.90
2023-07-16T16:30:50.734Z,0.40
2023-07-16T16:33:17.322Z,0.67
2023-07-16T16:35:44.226Z,0.70
2023-07-16T16:38:11.520Z,0.50
2023-07-16T16:40:39.431Z,0.55
2023-07-16T16:43:06.582Z,0.68
2023-07-16T16:45:34.921Z,1.00
2023-07-16T16:48:04.981Z,0.57
2023-07-16T16:50:33.140Z,0.80
2023-07-16T16:53:02.661Z,0.60
2023-07-16T16:55:30.289Z,0.50
2023-07-16T16:57:56.946Z,0.60
2023-07-16T17:00:25.931Z,0.70
2023-07-16T17:02:52.657Z,0.98
2023-07-16T17:05:20.861Z,0.85
2023-07-16T17:07:47.585Z,1.17
2023-07-16T17:10:14.079Z,1.20
2023-07-16T17:12:42.402Z,1.13
2023-07-16T17:15:10.928Z,0.90
2023-07-16T17:17:37.495Z,2.35
2023-07-16T17:20:07.106Z,1.70
2023-07-16T17:22:33.714Z,1.60
2023-07-16T17:25:00.267Z,1.20
2023-07-16T17:27:26.736Z,1.27
2023-07-16T17:29:54.028Z,1.00
2023-07-16T17:32:20.936Z,0.95
2023-07-16T17:34:47.347Z,1.00
2023-07-16T17:37:16.721Z,1.00
2023-07-16T17:39:45.870Z,1.40
2023-07-16T17:42:12.812Z,1.30
2023-07-16T17:44:39.424Z,1.30
2023-07-16T17:47:08.899Z,1.10
2023-07-16T17:49:35.875Z,1.27
2023-07-16T17:52:02.846Z,1.30
2023-07-16T17:54:29.519Z,1.55
2023-07-16T17:56:56.198Z,1.40
2023-07-16T17:59:26.073Z,1.40
2023-07-16T18:01:52.921Z,1.45
2023-07-16T18:04:24.995Z,1.33
2023-07-16T18:06:51.765Z,1.17
2023-07-16T18:09:18.536Z,1.10
2023-07-16T18:11:46.035Z,1.10
2023-07-16T18:14:14.994Z,1.10
2023-07-16T18:16:43.025Z,1.00
2023-07-16T18:19:14.980Z,0.90
2023-07-16T18:21:47.811Z,1.27
2023-07-16T18:24:17.649Z,1.00
2023-07-16T18:26:44.171Z,0.98
2023-07-16T18:29:11.468Z,0.90
2023-07-16T18:31:38.375Z,1.00
2023-07-16T18:34:05.951Z,1.45
2023-07-16T18:36:32.603Z,0.90
2023-07-16T18:38:59.217Z,1.10
2023-07-16T18:41:25.697Z,1.25
2023-07-16T18:43:52.385Z,1.15
2023-07-16T18:46:19.559Z,1.45
2023-07-16T18:48:46.418Z,0.73
2023-07-16T18:51:12.981Z,1.30
2023-07-16T18:53:39.674Z,1.08
2023-07-16T18:56:06.177Z,1.52
2023-07-16T18:58:32.761Z,0.90
2023-07-16T19:00:59.550Z,0.97
2023-07-16T19:03:26.262Z,1.58
2023-07-16T19:05:53.479Z,1.00
2023-07-16T19:08:20.212Z,0.93
2023-07-16T19:10:46.740Z,1.50
2023-07-16T19:13:13.403Z,0.87
2023-07-16T19:15:39.989Z,0.93
2023-07-16T19:18:06.657Z,1.13
2023-07-16T19:20:33.355Z,0.77
2023-07-16T19:22:59.989Z,0.73
2023-07-16T19:25:27.802Z,0.83
2023-07-16T19:27:56.135Z,0.73
2023-07-16T19:30:22.664Z,0.98
2023-07-16T19:32:49.228Z,0.70
2023-07-16T19:35:16.046Z,0.80
2023-07-16T19:37:42.524Z,0.63
2023-07-16T19:40:13.246Z,0.75
2023-07-16T19:42:40.657Z,0.68
2023-07-16T19:45:08.090Z,0.68
2023-07-16T19:47:35.252Z,0.77
2023-07-16T19:50:06.012Z,0.75
2023-07-16T19:52:33.375Z,0.60
2023-07-16T19:55:02.859Z,0.40
2023-07-16T19:57:35.404Z,0.80
2023-07-16T20:00:05.783Z,0.60
2023-07-16T20:02:35.276Z,0.80
2023-07-16T20:05:02.891Z,0.55
2023-07-16T20:07:33.472Z,0.90
2023-07-16T20:10:01.147Z,0.80
2023-07-16T20:12:28.031Z,0.50
2023-07-16T20:14:56.873Z,0.70
2023-07-16T20:17:23.492Z,0.50
2023-07-16T20:19:51.694Z,0.40
2023-07-16T20:22:19.795Z,0.57
2023-07-16T20:24:46.277Z,0.50
2023-07-16T20:27:13.167Z,0.32
2023-07-16T20:29:39.666Z,0.82
2023-07-16T20:32:06.789Z,0.68
2023-07-16T20:34:33.462Z,0.55
2023-07-16T20:37:00.064Z,0.55
2023-07-16T20:39:28.010Z,0.40
2023-07-16T20:41:54.551Z,0.47
2023-07-16T20:44:21.270Z,0.47
2023-07-16T20:46:48.036Z,0.77
2023-07-16T20:49:15.013Z,0.60
2023-07-16T20:51:41.817Z,0.63
2023-07-16T20:54:09.459Z,0.60
2023-07-16T20:56:36.329Z,0.50
2023-07-16T20:59:03.284Z,0.35
2023-07-16T21:01:31.883Z,0.60
2023-07-16T21:03:58.541Z,0.40
2023-07-16T21:06:25.130Z,0.60
2023-07-16T21:08:51.625Z,0.30
2023-07-16T21:11:18.639Z,0.52
2023-07-16T21:13:45.627Z,0.80
2023-07-16T21:16:15.490Z,0.50
2023-07-16T21:18:42.102Z,0.57
2023-07-16T21:21:08.540Z,0.68
2023-07-16T21:23:34.964Z,0.60
2023-07-16T21:26:01.797Z,0.50
2023-07-16T21:28:28.328Z,0.40
2023-07-16T21:30:54.962Z,0.40
2023-07-16T21:33:21.503Z,0.60
2023-07-16T21:35:48.168Z,0.50
2023-07-16T21:38:14.612Z,0.40
2023-07-16T21:40:41.099Z,0.60
2023-07-16T21:43:10.949Z,0.43
2023-07-16T21:45:39.713Z,0.50
2023-07-16T21:48:07.346Z,0.40
2023-07-16T21:50:34.061Z,0.50
2023-07-16T21:53:01.567Z,0.50
2023-07-16T21:55:28.197Z,0.50
2023-07-16T21:57:54.784Z,0.60
2023-07-16T22:00:23.678Z,0.57
2023-07-16T22:02:50.527Z,0.50
2023-07-16T22:05:17.344Z,0.43
2023-07-16T22:07:44.232Z,0.60
2023-07-16T22:10:11.680Z,0.50
2023-07-16T22:12:40.286Z,0.50
2023-07-16T22:15:07.958Z,0.40
2023-07-16T22:17:34.504Z,0.60
2023-07-16T22:20:05.177Z,0.40
2023-07-16T22:22:32.001Z,0.75
2023-07-16T22:24:58.729Z,0.60
2023-07-16T22:27:25.895Z,0.60
2023-07-16T22:29:53.804Z,0.50
2023-07-16T22:32:20.449Z,0.60
2023-07-16T22:34:47.520Z,0.73
2023-07-16T22:37:14.259Z,0.52
2023-07-16T22:39:40.801Z,0.50
2023-07-16T22:42:07.712Z,0.80
2023-07-16T22:44:34.289Z,0.50
2023-07-16T22:47:00.809Z,0.63
2023-07-16T22:49:29.662Z,0.60
2023-07-16T22:51:57.384Z,0.75
2023-07-16T22:54:23.903Z,0.77
2023-07-16T22:56:50.397Z,0.68
2023-07-16T22:59:16.848Z,0.60
2023-07-16T23:01:43.373Z,0.60
2023-07-16T23:04:10.288Z,0.60
2023-07-16T23:06:37.142Z,0.70
2023-07-16T23:09:04.056Z,0.40
2023-07-16T23:11:30.570Z,0.70
2023-07-16T23:13:57.166Z,0.70
2023-07-16T23:16:23.766Z,0.70
2023-07-16T23:18:50.263Z,0.60
2023-07-16T23:21:17.051Z,0.57
2023-07-16T23:23:44.048Z,0.75
2023-07-16T23:26:11.091Z,0.75
2023-07-16T23:28:37.563Z,0.70
2023-07-16T23:31:04.279Z,1.05
2023-07-16T23:33:32.366Z,0.77
2023-07-16T23:35:59.051Z,0.73
2023-07-16T23:38:25.576Z,1.08
2023-07-16T23:40:52.207Z,0.70
2023-07-16T23:43:18.902Z,0.65
2023-07-16T23:45:45.390Z,0.70
2023-07-16T23:48:11.953Z,0.90
2023-07-16T23:50:39.993Z,0.50
2023-07-16T23:53:07.119Z,0.50
2023-07-16T23:55:33.612Z,0.65
2023-07-16T23:58:00.244Z,0.90
